Los Angeles, Argentina
Current Conditions -  °F | °C
As of 11:00 AM on Sunday 21 Dec 2014 (Local Time) from SANT Reporting Station
Broken Clouds Broken Clouds  
Wind Chill: 66°   Ceiling: 1700
Heat Index: 66°   Visibility: 6mi
Dew Point: 57°   Wind: 7mph
Humidity: 73%   Direction: 180°S
Pressure: 29.94"   Gusts: NA
Location:  28.54°S, 65.95°W
Report Text: SANT 211400Z 18006KT 9999 BKN017 BKN06019/14 Q1014
Loading
Personal Weather Stations






























Interactive Weather Map New forecast layout! Learn more

10-Day Weather Forecast

Advertisements
Track Severe Weather on mobile